sensor_id;sensor_type;location;lat;lon;timestamp;P1;durP1;ratioP1;P2;durP2;ratioP2
68097;SDS011;54886;47.036;15.466;2024-01-15T00:01:02;47.75;;;21.63;;
68097;SDS011;54886;47.036;15.466;2024-01-15T00:03:28;54.53;;;23.58;;
68097;SDS011;54886;47.036;15.466;2024-01-15T00:05:53;52.45;;;24.27;;
68097;SDS011;54886;47.036;15.466;2024-01-15T00:08:19;52.67;;;25.42;;
68097;SDS011;54886;47.036;15.466;2024-01-15T00:10:44;50.00;;;23.95;;
68097;SDS011;54886;47.036;15.466;2024-01-15T00:13:10;51.15;;;25.33;;
68097;SDS011;54886;47.036;15.466;2024-01-15T00:15:35;50.15;;;23.65;;
68097;SDS011;54886;47.036;15.466;2024-01-15T00:18:01;50.50;;;24.10;;
68097;SDS011;54886;47.036;15.466;2024-01-15T00:20:26;53.05;;;24.25;;
68097;SDS011;54886;47.036;15.466;2024-01-15T00:22:51;58.08;;;24.92;;
68097;SDS011;54886;47.036;15.466;2024-01-15T00:25:17;60.40;;;25.77;;
68097;SDS011;54886;47.036;15.466;2024-01-15T00:27:42;54.22;;;25.30;;
68097;SDS011;54886;47.036;15.466;2024-01-15T00:30:08;50.45;;;23.67;;
68097;SDS011;54886;47.036;15.466;2024-01-15T00:32:34;58.83;;;25.23;;
68097;SDS011;54886;47.036;15.466;2024-01-15T00:34:59;59.88;;;25.98;;
68097;SDS011;54886;47.036;15.466;2024-01-15T00:37:25;53.70;;;23.75;;
68097;SDS011;54886;47.036;15.466;2024-01-15T00:39:50;54.88;;;24.55;;
68097;SDS011;54886;47.036;15.466;2024-01-15T00:42:15;54.50;;;24.55;;
68097;SDS011;54886;47.036;15.466;2024-01-15T00:44:41;56.22;;;25.02;;
68097;SDS011;54886;47.036;15.466;2024-01-15T00:47:07;58.67;;;25.60;;
68097;SDS011;54886;47.036;15.466;2024-01-15T00:49:32;56.08;;;24.33;;
68097;SDS011;54886;47.036;15.466;2024-01-15T00:51:58;49.08;;;22.35;;
68097;SDS011;54886;47.036;15.466;2024-01-15T00:54:23;52.40;;;23.20;;
68097;SDS011;54886;47.036;15.466;2024-01-15T00:56:49;53.60;;;25.73;;
68097;SDS011;54886;47.036;15.466;2024-01-15T00:59:14;59.97;;;24.95;;
68097;SDS011;54886;47.036;15.466;2024-01-15T01:01:40;51.47;;;23.38;;
68097;SDS011;54886;47.036;15.466;2024-01-15T01:04:08;56.38;;;24.45;;
68097;SDS011;54886;47.036;15.466;2024-01-15T01:06:34;61.75;;;24.85;;
68097;SDS011;54886;47.036;15.466;2024-01-15T01:09:00;53.75;;;24.23;;
68097;SDS011;54886;47.036;15.466;2024-01-15T01:11:25;58.58;;;24.60;;
68097;SDS011;54886;47.036;15.466;2024-01-15T01:13:50;56.22;;;24.52;;
68097;SDS011;54886;47.036;15.466;2024-01-15T01:16:16;54.70;;;23.80;;
68097;SDS011;54886;47.036;15.466;2024-01-15T01:18:42;59.45;;;25.77;;
68097;SDS011;54886;47.036;15.466;2024-01-15T01:21:07;58.55;;;25.10;;
68097;SDS011;54886;47.036;15.466;2024-01-15T01:23:32;56.30;;;24.52;;
68097;SDS011;54886;47.036;15.466;2024-01-15T01:25:58;55.03;;;23.83;;
68097;SDS011;54886;47.036;15.466;2024-01-15T01:28:23;59.10;;;24.60;;
68097;SDS011;54886;47.036;15.466;2024-01-15T01:30:48;55.58;;;25.20;;
68097;SDS011;54886;47.036;15.466;2024-01-15T01:33:14;54.08;;;25.02;;
68097;SDS011;54886;47.036;15.466;2024-01-15T01:35:39;52.50;;;24.08;;
68097;SDS011;54886;47.036;15.466;2024-01-15T01:38:05;49.75;;;24.40;;
68097;SDS011;54886;47.036;15.466;2024-01-15T01:40:30;52.15;;;24.80;;
68097;SDS011;54886;47.036;15.466;2024-01-15T01:42:55;54.88;;;24.40;;
68097;SDS011;54886;47.036;15.466;2024-01-15T01:45:21;49.97;;;23.38;;
68097;SDS011;54886;47.036;15.466;2024-01-15T01:47:46;53.60;;;23.23;;
68097;SDS011;54886;47.036;15.466;2024-01-15T01:50:12;51.10;;;23.67;;
68097;SDS011;54886;47.036;15.466;2024-01-15T01:52:38;53.33;;;23.65;;
68097;SDS011;54886;47.036;15.466;2024-01-15T01:55:04;55.17;;;25.02;;
68097;SDS011;54886;47.036;15.466;2024-01-15T01:57:32;49.15;;;23.25;;
68097;SDS011;54886;47.036;15.466;2024-01-15T01:59:59;57.55;;;24.98;;
68097;SDS011;54886;47.036;15.466;2024-01-15T02:02:25;57.05;;;23.92;;
68097;SDS011;54886;47.036;15.466;2024-01-15T02:04:51;54.67;;;23.60;;
68097;SDS011;54886;47.036;15.466;2024-01-15T02:07:16;54.22;;;23.60;;
68097;SDS011;54886;47.036;15.466;2024-01-15T02:09:42;51.05;;;23.08;;
68097;SDS011;54886;47.036;15.466;2024-01-15T02:12:09;52.30;;;23.30;;
68097;SDS011;54886;47.036;15.466;2024-01-15T02:14:35;51.83;;;23.15;;
68097;SDS011;54886;47.036;15.466;2024-01-15T02:17:01;51.40;;;23.80;;
68097;SDS011;54886;47.036;15.466;2024-01-15T02:19:26;52.17;;;23.05;;
68097;SDS011;54886;47.036;15.466;2024-01-15T02:21:52;55.38;;;24.13;;
68097;SDS011;54886;47.036;15.466;2024-01-15T02:24:17;50.80;;;22.40;;
68097;SDS011;54886;47.036;15.466;2024-01-15T02:26:43;52.03;;;22.73;;
68097;SDS011;54886;47.036;15.466;2024-01-15T02:29:08;58.55;;;24.95;;
68097;SDS011;54886;47.036;15.466;2024-01-15T02:31:35;52.38;;;23.25;;
68097;SDS011;54886;47.036;15.466;2024-01-15T02:34:01;51.78;;;22.42;;
68097;SDS011;54886;47.036;15.466;2024-01-15T02:36:27;51.78;;;22.50;;
68097;SDS011;54886;47.036;15.466;2024-01-15T02:38:52;60.08;;;25.25;;
68097;SDS011;54886;47.036;15.466;2024-01-15T02:41:17;57.40;;;24.00;;
68097;SDS011;54886;47.036;15.466;2024-01-15T02:43:43;56.55;;;24.20;;
68097;SDS011;54886;47.036;15.466;2024-01-15T02:46:08;60.38;;;25.42;;
68097;SDS011;54886;47.036;15.466;2024-01-15T02:48:34;53.92;;;23.73;;
68097;SDS011;54886;47.036;15.466;2024-01-15T02:51:02;55.72;;;23.45;;
68097;SDS011;54886;47.036;15.466;2024-01-15T02:53:27;56.38;;;24.25;;
68097;SDS011;54886;47.036;15.466;2024-01-15T02:55:53;57.97;;;24.50;;
68097;SDS011;54886;47.036;15.466;2024-01-15T02:58:18;54.67;;;24.88;;
68097;SDS011;54886;47.036;15.466;2024-01-15T03:00:44;53.83;;;24.67;;
68097;SDS011;54886;47.036;15.466;2024-01-15T03:03:09;55.72;;;24.30;;
68097;SDS011;54886;47.036;15.466;2024-01-15T03:05:34;53.90;;;24.15;;
68097;SDS011;54886;47.036;15.466;2024-01-15T03:08:00;54.28;;;23.08;;
68097;SDS011;54886;47.036;15.466;2024-01-15T03:10:25;57.30;;;24.05;;
68097;SDS011;54886;47.036;15.466;2024-01-15T03:12:51;55.40;;;21.75;;
68097;SDS011;54886;47.036;15.466;2024-01-15T03:15:16;53.58;;;22.98;;
68097;SDS011;54886;47.036;15.466;2024-01-15T03:17:43;48.42;;;22.17;;
68097;SDS011;54886;47.036;15.466;2024-01-15T03:20:09;57.95;;;23.35;;
68097;SDS011;54886;47.036;15.466;2024-01-15T03:22:34;55.08;;;24.08;;
68097;SDS011;54886;47.036;15.466;2024-01-15T03:25:00;54.38;;;23.90;;
68097;SDS011;54886;47.036;15.466;2024-01-15T03:27:25;49.38;;;21.80;;
68097;SDS011;54886;47.036;15.466;2024-01-15T03:29:51;53.28;;;22.98;;
68097;SDS011;54886;47.036;15.466;2024-01-15T03:32:16;49.95;;;22.52;;
68097;SDS011;54886;47.036;15.466;2024-01-15T03:34:42;47.85;;;21.90;;
68097;SDS011;54886;47.036;15.466;2024-01-15T03:37:07;56.30;;;24.50;;
68097;SDS011;54886;47.036;15.466;2024-01-15T03:39:32;50.95;;;21.92;;
68097;SDS011;54886;47.036;15.466;2024-01-15T03:41:58;56.60;;;22.88;;
68097;SDS011;54886;47.036;15.466;2024-01-15T03:44:23;49.08;;;22.77;;
68097;SDS011;54886;47.036;15.466;2024-01-15T03:46:48;49.80;;;21.95;;
68097;SDS011;54886;47.036;15.466;2024-01-15T03:49:14;48.20;;;21.38;;
68097;SDS011;54886;47.036;15.466;2024-01-15T03:51:39;52.70;;;22.67;;
68097;SDS011;54886;47.036;15.466;2024-01-15T03:54:05;59.17;;;24.65;;
68097;SDS011;54886;47.036;15.466;2024-01-15T03:56:30;55.30;;;24.83;;
68097;SDS011;54886;47.036;15.466;2024-01-15T03:58:56;61.13;;;25.88;;
68097;SDS011;54886;47.036;15.466;2024-01-15T04:01:21;54.00;;;24.23;;
68097;SDS011;54886;47.036;15.466;2024-01-15T04:03:46;54.75;;;24.13;;
68097;SDS011;54886;47.036;15.466;2024-01-15T04:06:12;53.05;;;21.98;;
68097;SDS011;54886;47.036;15.466;2024-01-15T04:08:37;60.47;;;24.65;;
68097;SDS011;54886;47.036;15.466;2024-01-15T04:11:03;50.58;;;22.50;;
68097;SDS011;54886;47.036;15.466;2024-01-15T04:13:31;61.53;;;22.83;;
68097;SDS011;54886;47.036;15.466;2024-01-15T04:15:57;57.45;;;23.27;;
68097;SDS011;54886;47.036;15.466;2024-01-15T04:18:23;55.88;;;21.73;;
68097;SDS011;54886;47.036;15.466;2024-01-15T04:20:48;55.53;;;22.63;;
68097;SDS011;54886;47.036;15.466;2024-01-15T04:23:13;53.67;;;23.80;;
68097;SDS011;54886;47.036;15.466;2024-01-15T04:25:39;55.08;;;22.80;;
68097;SDS011;54886;47.036;15.466;2024-01-15T04:28:07;48.58;;;21.80;;
68097;SDS011;54886;47.036;15.466;2024-01-15T04:30:35;50.33;;;21.92;;
68097;SDS011;54886;47.036;15.466;2024-01-15T04:33:01;51.65;;;22.65;;
68097;SDS011;54886;47.036;15.466;2024-01-15T04:35:26;47.95;;;22.15;;
68097;SDS011;54886;47.036;15.466;2024-01-15T04:37:51;50.35;;;22.17;;
68097;SDS011;54886;47.036;15.466;2024-01-15T04:40:17;52.38;;;23.27;;
68097;SDS011;54886;47.036;15.466;2024-01-15T04:42:42;55.80;;;23.25;;
68097;SDS011;54886;47.036;15.466;2024-01-15T04:45:08;47.70;;;21.08;;
68097;SDS011;54886;47.036;15.466;2024-01-15T04:47:33;45.83;;;21.55;;
68097;SDS011;54886;47.036;15.466;2024-01-15T04:49:59;45.63;;;20.15;;
68097;SDS011;54886;47.036;15.466;2024-01-15T04:52:24;49.10;;;21.88;;
68097;SDS011;54886;47.036;15.466;2024-01-15T04:54:50;56.20;;;23.45;;
68097;SDS011;54886;47.036;15.466;2024-01-15T04:57:15;48.88;;;21.10;;
68097;SDS011;54886;47.036;15.466;2024-01-15T04:59:40;55.80;;;23.58;;
68097;SDS011;54886;47.036;15.466;2024-01-15T05:02:06;50.53;;;23.10;;
68097;SDS011;54886;47.036;15.466;2024-01-15T05:04:31;49.83;;;20.98;;
68097;SDS011;54886;47.036;15.466;2024-01-15T05:06:57;48.40;;;20.77;;
68097;SDS011;54886;47.036;15.466;2024-01-15T05:09:23;47.17;;;20.13;;
68097;SDS011;54886;47.036;15.466;2024-01-15T05:11:48;52.08;;;21.45;;
68097;SDS011;54886;47.036;15.466;2024-01-15T05:14:14;48.38;;;23.08;;
68097;SDS011;54886;47.036;15.466;2024-01-15T05:16:39;50.40;;;21.13;;
68097;SDS011;54886;47.036;15.466;2024-01-15T05:19:11;51.22;;;20.88;;
68097;SDS011;54886;47.036;15.466;2024-01-15T05:21:36;46.03;;;19.67;;
68097;SDS011;54886;47.036;15.466;2024-01-15T05:24:02;48.15;;;20.70;;
68097;SDS011;54886;47.036;15.466;2024-01-15T05:26:27;53.83;;;22.10;;
68097;SDS011;54886;47.036;15.466;2024-01-15T05:28:52;45.20;;;20.35;;
68097;SDS011;54886;47.036;15.466;2024-01-15T05:31:18;51.72;;;21.38;;
68097;SDS011;54886;47.036;15.466;2024-01-15T05:33:43;45.90;;;20.05;;
68097;SDS011;54886;47.036;15.466;2024-01-15T05:36:08;48.08;;;20.52;;
68097;SDS011;54886;47.036;15.466;2024-01-15T05:38:34;51.20;;;21.30;;
68097;SDS011;54886;47.036;15.466;2024-01-15T05:40:59;51.30;;;21.15;;
68097;SDS011;54886;47.036;15.466;2024-01-15T05:43:24;38.53;;;19.20;;
68097;SDS011;54886;47.036;15.466;2024-01-15T05:45:50;51.28;;;21.88;;
68097;SDS011;54886;47.036;15.466;2024-01-15T05:48:15;46.60;;;21.67;;
68097;SDS011;54886;47.036;15.466;2024-01-15T05:50:41;45.70;;;20.63;;
68097;SDS011;54886;47.036;15.466;2024-01-15T05:53:06;46.05;;;21.33;;
68097;SDS011;54886;47.036;15.466;2024-01-15T05:55:32;49.33;;;21.52;;
68097;SDS011;54886;47.036;15.466;2024-01-15T05:57:57;47.00;;;19.95;;
68097;SDS011;54886;47.036;15.466;2024-01-15T06:00:22;43.80;;;20.88;;
68097;SDS011;54886;47.036;15.466;2024-01-15T06:02:48;46.25;;;22.00;;
68097;SDS011;54886;47.036;15.466;2024-01-15T06:05:13;51.60;;;21.55;;
68097;SDS011;54886;47.036;15.466;2024-01-15T06:07:38;45.50;;;21.40;;
68097;SDS011;54886;47.036;15.466;2024-01-15T06:10:04;42.75;;;19.48;;
68097;SDS011;54886;47.036;15.466;2024-01-15T06:12:30;49.90;;;22.50;;
68097;SDS011;54886;47.036;15.466;2024-01-15T06:14:56;48.88;;;22.52;;
68097;SDS011;54886;47.036;15.466;2024-01-15T06:17:21;49.45;;;22.25;;
68097;SDS011;54886;47.036;15.466;2024-01-15T06:19:46;51.67;;;24.25;;
68097;SDS011;54886;47.036;15.466;2024-01-15T06:22:12;52.47;;;23.55;;
68097;SDS011;54886;47.036;15.466;2024-01-15T06:24:37;52.78;;;23.92;;
68097;SDS011;54886;47.036;15.466;2024-01-15T06:27:02;53.80;;;22.55;;
68097;SDS011;54886;47.036;15.466;2024-01-15T06:29:28;47.88;;;21.90;;
68097;SDS011;54886;47.036;15.466;2024-01-15T06:31:53;46.97;;;20.92;;
68097;SDS011;54886;47.036;15.466;2024-01-15T06:34:19;50.88;;;21.55;;
68097;SDS011;54886;47.036;15.466;2024-01-15T06:36:44;46.97;;;21.98;;
68097;SDS011;54886;47.036;15.466;2024-01-15T06:39:10;52.25;;;22.75;;
68097;SDS011;54886;47.036;15.466;2024-01-15T06:41:35;49.42;;;21.42;;
68097;SDS011;54886;47.036;15.466;2024-01-15T06:44:08;52.00;;;21.58;;
68097;SDS011;54886;47.036;15.466;2024-01-15T06:46:34;48.53;;;21.73;;
68097;SDS011;54886;47.036;15.466;2024-01-15T06:48:59;56.92;;;24.50;;
68097;SDS011;54886;47.036;15.466;2024-01-15T06:51:25;49.55;;;20.98;;
68097;SDS011;54886;47.036;15.466;2024-01-15T06:53:50;50.53;;;22.65;;
68097;SDS011;54886;47.036;15.466;2024-01-15T06:56:15;43.38;;;19.85;;
68097;SDS011;54886;47.036;15.466;2024-01-15T06:58:41;48.75;;;22.15;;
68097;SDS011;54886;47.036;15.466;2024-01-15T07:01:06;46.85;;;20.50;;
68097;SDS011;54886;47.036;15.466;2024-01-15T07:03:32;50.60;;;22.77;;
68097;SDS011;54886;47.036;15.466;2024-01-15T07:05:58;44.72;;;21.10;;
68097;SDS011;54886;47.036;15.466;2024-01-15T07:08:23;53.08;;;23.00;;
68097;SDS011;54886;47.036;15.466;2024-01-15T07:10:49;47.90;;;22.10;;
68097;SDS011;54886;47.036;15.466;2024-01-15T07:13:14;46.10;;;21.98;;
68097;SDS011;54886;47.036;15.466;2024-01-15T07:15:39;48.05;;;20.63;;
68097;SDS011;54886;47.036;15.466;2024-01-15T07:18:05;44.85;;;20.60;;
68097;SDS011;54886;47.036;15.466;2024-01-15T07:20:30;44.42;;;21.15;;
68097;SDS011;54886;47.036;15.466;2024-01-15T07:22:56;45.42;;;20.80;;
68097;SDS011;54886;47.036;15.466;2024-01-15T07:25:21;41.13;;;19.17;;
68097;SDS011;54886;47.036;15.466;2024-01-15T07:27:47;45.55;;;20.25;;
68097;SDS011;54886;47.036;15.466;2024-01-15T07:30:13;46.10;;;22.08;;
68097;SDS011;54886;47.036;15.466;2024-01-15T07:32:38;44.40;;;20.23;;
68097;SDS011;54886;47.036;15.466;2024-01-15T07:35:04;43.72;;;19.80;;
68097;SDS011;54886;47.036;15.466;2024-01-15T07:37:30;40.75;;;20.15;;
68097;SDS011;54886;47.036;15.466;2024-01-15T07:39:56;41.15;;;18.83;;
68097;SDS011;54886;47.036;15.466;2024-01-15T07:42:21;46.40;;;20.42;;
68097;SDS011;54886;47.036;15.466;2024-01-15T07:44:47;45.88;;;20.63;;
68097;SDS011;54886;47.036;15.466;2024-01-15T07:47:12;39.42;;;19.25;;
68097;SDS011;54886;47.036;15.466;2024-01-15T07:49:38;45.65;;;21.10;;
68097;SDS011;54886;47.036;15.466;2024-01-15T07:52:03;40.30;;;19.33;;
68097;SDS011;54886;47.036;15.466;2024-01-15T07:54:30;47.58;;;20.98;;
68097;SDS011;54886;47.036;15.466;2024-01-15T07:57:00;41.30;;;18.38;;
68097;SDS011;54886;47.036;15.466;2024-01-15T07:59:27;45.03;;;21.38;;
68097;SDS011;54886;47.036;15.466;2024-01-15T08:01:53;43.83;;;21.20;;
68097;SDS011;54886;47.036;15.466;2024-01-15T08:04:18;41.58;;;20.42;;
68097;SDS011;54886;47.036;15.466;2024-01-15T08:06:44;41.65;;;20.30;;
68097;SDS011;54886;47.036;15.466;2024-01-15T08:09:11;43.50;;;20.02;;
68097;SDS011;54886;47.036;15.466;2024-01-15T08:11:40;43.55;;;20.73;;
68097;SDS011;54886;47.036;15.466;2024-01-15T08:14:06;47.50;;;21.63;;
68097;SDS011;54886;47.036;15.466;2024-01-15T08:16:32;46.33;;;21.23;;
68097;SDS011;54886;47.036;15.466;2024-01-15T08:18:58;41.03;;;20.52;;
68097;SDS011;54886;47.036;15.466;2024-01-15T08:21:24;43.15;;;20.75;;
68097;SDS011;54886;47.036;15.466;2024-01-15T08:23:49;41.30;;;19.80;;
68097;SDS011;54886;47.036;15.466;2024-01-15T08:26:15;46.40;;;21.20;;
68097;SDS011;54886;47.036;15.466;2024-01-15T08:28:40;41.72;;;20.00;;
68097;SDS011;54886;47.036;15.466;2024-01-15T08:31:06;51.72;;;22.85;;
68097;SDS011;54886;47.036;15.466;2024-01-15T08:33:31;49.08;;;22.25;;
68097;SDS011;54886;47.036;15.466;2024-01-15T08:35:56;44.78;;;21.83;;
68097;SDS011;54886;47.036;15.466;2024-01-15T08:38:22;41.25;;;20.70;;
68097;SDS011;54886;47.036;15.466;2024-01-15T08:40:48;44.47;;;20.98;;
68097;SDS011;54886;47.036;15.466;2024-01-15T08:43:14;45.55;;;20.33;;
68097;SDS011;54886;47.036;15.466;2024-01-15T08:45:40;44.55;;;21.73;;
68097;SDS011;54886;47.036;15.466;2024-01-15T08:48:05;47.10;;;21.65;;
68097;SDS011;54886;47.036;15.466;2024-01-15T08:50:31;50.10;;;22.48;;
68097;SDS011;54886;47.036;15.466;2024-01-15T08:52:57;45.10;;;20.35;;
68097;SDS011;54886;47.036;15.466;2024-01-15T08:55:23;44.00;;;22.00;;
68097;SDS011;54886;47.036;15.466;2024-01-15T08:57:49;53.08;;;23.20;;
68097;SDS011;54886;47.036;15.466;2024-01-15T09:00:15;45.33;;;20.45;;
68097;SDS011;54886;47.036;15.466;2024-01-15T09:02:41;45.40;;;21.33;;
68097;SDS011;54886;47.036;15.466;2024-01-15T09:05:07;42.38;;;21.27;;
68097;SDS011;54886;47.036;15.466;2024-01-15T09:07:33;48.88;;;21.77;;
68097;SDS011;54886;47.036;15.466;2024-01-15T09:09:58;41.28;;;20.35;;
68097;SDS011;54886;47.036;15.466;2024-01-15T09:12:24;40.13;;;19.98;;
68097;SDS011;54886;47.036;15.466;2024-01-15T09:14:50;46.70;;;21.17;;
68097;SDS011;54886;47.036;15.466;2024-01-15T09:17:17;50.53;;;23.02;;
68097;SDS011;54886;47.036;15.466;2024-01-15T09:19:42;45.60;;;21.95;;
68097;SDS011;54886;47.036;15.466;2024-01-15T09:22:08;44.10;;;21.23;;
68097;SDS011;54886;47.036;15.466;2024-01-15T09:24:33;45.50;;;21.67;;
68097;SDS011;54886;47.036;15.466;2024-01-15T09:26:59;47.72;;;22.42;;
68097;SDS011;54886;47.036;15.466;2024-01-15T09:29:24;49.65;;;22.98;;
68097;SDS011;54886;47.036;15.466;2024-01-15T09:31:50;41.53;;;20.70;;
68097;SDS011;54886;47.036;15.466;2024-01-15T09:34:15;42.83;;;20.33;;
68097;SDS011;54886;47.036;15.466;2024-01-15T09:36:41;41.47;;;20.02;;
68097;SDS011;54886;47.036;15.466;2024-01-15T09:39:07;45.63;;;19.80;;
68097;SDS011;54886;47.036;15.466;2024-01-15T09:41:37;41.83;;;20.55;;
68097;SDS011;54886;47.036;15.466;2024-01-15T09:44:05;39.67;;;18.02;;
68097;SDS011;54886;47.036;15.466;2024-01-15T09:46:37;33.63;;;16.70;;
68097;SDS011;54886;47.036;15.466;2024-01-15T09:49:03;42.95;;;22.02;;
68097;SDS011;54886;47.036;15.466;2024-01-15T09:51:31;51.95;;;23.55;;
68097;SDS011;54886;47.036;15.466;2024-01-15T09:53:57;40.90;;;19.48;;
68097;SDS011;54886;47.036;15.466;2024-01-15T09:56:23;38.97;;;18.80;;
68097;SDS011;54886;47.036;15.466;2024-01-15T09:58:49;40.70;;;19.33;;
68097;SDS011;54886;47.036;15.466;2024-01-15T10:01:17;34.00;;;16.63;;
68097;SDS011;54886;47.036;15.466;2024-01-15T10:03:45;37.42;;;17.13;;
68097;SDS011;54886;47.036;15.466;2024-01-15T10:06:11;36.70;;;17.00;;
68097;SDS011;54886;47.036;15.466;2024-01-15T10:08:42;35.53;;;17.40;;
68097;SDS011;54886;47.036;15.466;2024-01-15T10:11:12;34.45;;;17.05;;
68097;SDS011;54886;47.036;15.466;2024-01-15T10:13:37;29.90;;;16.00;;
68097;SDS011;54886;47.036;15.466;2024-01-15T10:16:04;32.95;;;16.17;;
68097;SDS011;54886;47.036;15.466;2024-01-15T10:18:29;28.70;;;14.38;;
68097;SDS011;54886;47.036;15.466;2024-01-15T10:20:55;28.63;;;13.95;;
68097;SDS011;54886;47.036;15.466;2024-01-15T10:23:22;25.65;;;13.38;;
68097;SDS011;54886;47.036;15.466;2024-01-15T10:25:48;27.58;;;12.90;;
68097;SDS011;54886;47.036;15.466;2024-01-15T10:28:14;26.15;;;12.75;;
68097;SDS011;54886;47.036;15.466;2024-01-15T10:30:39;22.75;;;11.82;;
68097;SDS011;54886;47.036;15.466;2024-01-15T10:33:05;27.27;;;13.18;;
68097;SDS011;54886;47.036;15.466;2024-01-15T10:35:31;25.45;;;11.73;;
68097;SDS011;54886;47.036;15.466;2024-01-15T10:38:01;37.45;;;15.95;;
68097;SDS011;54886;47.036;15.466;2024-01-15T10:40:28;31.13;;;14.95;;
68097;SDS011;54886;47.036;15.466;2024-01-15T10:42:54;20.67;;;10.48;;
68097;SDS011;54886;47.036;15.466;2024-01-15T10:45:19;22.00;;;11.55;;
68097;SDS011;54886;47.036;15.466;2024-01-15T10:47:45;21.27;;;10.55;;
68097;SDS011;54886;47.036;15.466;2024-01-15T10:50:11;20.45;;;10.50;;
68097;SDS011;54886;47.036;15.466;2024-01-15T10:52:37;22.42;;;10.77;;
68097;SDS011;54886;47.036;15.466;2024-01-15T10:57:30;22.17;;;10.18;;
68097;SDS011;54886;47.036;15.466;2024-01-15T10:59:56;21.20;;;9.95;;
68097;SDS011;54886;47.036;15.466;2024-01-15T11:02:21;21.42;;;10.60;;
68097;SDS011;54886;47.036;15.466;2024-01-15T11:04:48;16.77;;;9.25;;
68097;SDS011;54886;47.036;15.466;2024-01-15T11:07:14;20.00;;;9.35;;
68097;SDS011;54886;47.036;15.466;2024-01-15T11:09:39;20.38;;;10.02;;
68097;SDS011;54886;47.036;15.466;2024-01-15T11:12:11;20.83;;;11.13;;
68097;SDS011;54886;47.036;15.466;2024-01-15T11:14:39;20.67;;;9.60;;
68097;SDS011;54886;47.036;15.466;2024-01-15T11:17:04;19.38;;;9.95;;
68097;SDS011;54886;47.036;15.466;2024-01-15T11:22:09;15.48;;;8.27;;
68097;SDS011;54886;47.036;15.466;2024-01-15T11:24:39;20.15;;;10.45;;
68097;SDS011;54886;47.036;15.466;2024-01-15T11:27:05;19.35;;;9.27;;
68097;SDS011;54886;47.036;15.466;2024-01-15T11:29:36;19.60;;;9.93;;
68097;SDS011;54886;47.036;15.466;2024-01-15T11:32:06;17.33;;;9.20;;
68097;SDS011;54886;47.036;15.466;2024-01-15T11:37:17;19.08;;;9.13;;
68097;SDS011;54886;47.036;15.466;2024-01-15T11:39:43;18.70;;;9.73;;
68097;SDS011;54886;47.036;15.466;2024-01-15T11:42:09;18.75;;;9.77;;
68097;SDS011;54886;47.036;15.466;2024-01-15T11:44:36;19.00;;;9.48;;
68097;SDS011;54886;47.036;15.466;2024-01-15T11:47:06;18.60;;;10.00;;
68097;SDS011;54886;47.036;15.466;2024-01-15T11:52:34;16.38;;;9.07;;
68097;SDS011;54886;47.036;15.466;2024-01-15T11:57:41;17.67;;;8.98;;
68097;SDS011;54886;47.036;15.466;2024-01-15T12:00:10;19.27;;;9.40;;
68097;SDS011;54886;47.036;15.466;2024-01-15T12:02:40;19.67;;;8.88;;
68097;SDS011;54886;47.036;15.466;2024-01-15T12:05:09;20.75;;;9.48;;
68097;SDS011;54886;47.036;15.466;2024-01-15T12:07:38;16.90;;;9.35;;
68097;SDS011;54886;47.036;15.466;2024-01-15T12:10:10;17.42;;;9.23;;
68097;SDS011;54886;47.036;15.466;2024-01-15T12:12:43;16.70;;;9.35;;
68097;SDS011;54886;47.036;15.466;2024-01-15T12:15:11;18.15;;;8.80;;
68097;SDS011;54886;47.036;15.466;2024-01-15T12:17:36;19.90;;;9.15;;
68097;SDS011;54886;47.036;15.466;2024-01-15T12:20:03;18.27;;;9.63;;
68097;SDS011;54886;47.036;15.466;2024-01-15T12:22:29;16.15;;;9.00;;
68097;SDS011;54886;47.036;15.466;2024-01-15T12:24:55;18.75;;;9.13;;
68097;SDS011;54886;47.036;15.466;2024-01-15T12:27:20;16.80;;;9.07;;
68097;SDS011;54886;47.036;15.466;2024-01-15T12:29:46;19.30;;;9.63;;
68097;SDS011;54886;47.036;15.466;2024-01-15T12:32:12;19.40;;;9.50;;
68097;SDS011;54886;47.036;15.466;2024-01-15T12:34:38;19.77;;;9.18;;
68097;SDS011;54886;47.036;15.466;2024-01-15T12:37:03;18.00;;;9.90;;
68097;SDS011;54886;47.036;15.466;2024-01-15T12:39:29;19.25;;;10.15;;
68097;SDS011;54886;47.036;15.466;2024-01-15T12:41:54;20.52;;;10.38;;
68097;SDS011;54886;47.036;15.466;2024-01-15T12:44:20;18.33;;;10.38;;
68097;SDS011;54886;47.036;15.466;2024-01-15T12:46:45;17.95;;;10.02;;
68097;SDS011;54886;47.036;15.466;2024-01-15T12:49:12;16.58;;;9.68;;
68097;SDS011;54886;47.036;15.466;2024-01-15T12:51:38;19.10;;;9.63;;
68097;SDS011;54886;47.036;15.466;2024-01-15T12:54:04;18.58;;;10.30;;
68097;SDS011;54886;47.036;15.466;2024-01-15T12:56:29;18.23;;;9.35;;
68097;SDS011;54886;47.036;15.466;2024-01-15T12:58:55;21.35;;;10.00;;
68097;SDS011;54886;47.036;15.466;2024-01-15T13:01:20;19.83;;;10.48;;
68097;SDS011;54886;47.036;15.466;2024-01-15T13:03:46;17.80;;;9.40;;
68097;SDS011;54886;47.036;15.466;2024-01-15T13:06:12;17.42;;;9.93;;
68097;SDS011;54886;47.036;15.466;2024-01-15T13:08:37;16.45;;;8.98;;
68097;SDS011;54886;47.036;15.466;2024-01-15T13:11:03;18.60;;;9.18;;
68097;SDS011;54886;47.036;15.466;2024-01-15T13:13:28;15.48;;;8.75;;
68097;SDS011;54886;47.036;15.466;2024-01-15T13:15:55;14.82;;;8.07;;
68097;SDS011;54886;47.036;15.466;2024-01-15T13:18:21;15.05;;;7.65;;
68097;SDS011;54886;47.036;15.466;2024-01-15T13:20:46;15.60;;;7.70;;
68097;SDS011;54886;47.036;15.466;2024-01-15T13:23:12;13.75;;;7.78;;
68097;SDS011;54886;47.036;15.466;2024-01-15T13:25:37;16.23;;;8.75;;
68097;SDS011;54886;47.036;15.466;2024-01-15T13:28:04;17.13;;;8.32;;
68097;SDS011;54886;47.036;15.466;2024-01-15T13:30:30;18.45;;;8.05;;
68097;SDS011;54886;47.036;15.466;2024-01-15T13:32:56;17.33;;;8.15;;
68097;SDS011;54886;47.036;15.466;2024-01-15T13:35:22;17.00;;;8.68;;
68097;SDS011;54886;47.036;15.466;2024-01-15T13:37:48;15.27;;;8.30;;
68097;SDS011;54886;47.036;15.466;2024-01-15T13:40:13;16.77;;;8.30;;
68097;SDS011;54886;47.036;15.466;2024-01-15T13:42:45;15.65;;;7.88;;
68097;SDS011;54886;47.036;15.466;2024-01-15T13:45:11;19.10;;;8.55;;
68097;SDS011;54886;47.036;15.466;2024-01-15T13:47:39;18.02;;;8.23;;
68097;SDS011;54886;47.036;15.466;2024-01-15T13:50:06;15.88;;;7.90;;
68097;SDS011;54886;47.036;15.466;2024-01-15T13:52:32;14.85;;;7.90;;
68097;SDS011;54886;47.036;15.466;2024-01-15T13:54:57;15.23;;;8.07;;
68097;SDS011;54886;47.036;15.466;2024-01-15T13:57:22;14.10;;;7.95;;
68097;SDS011;54886;47.036;15.466;2024-01-15T13:59:48;14.93;;;7.55;;
68097;SDS011;54886;47.036;15.466;2024-01-15T14:02:14;13.10;;;6.97;;
68097;SDS011;54886;47.036;15.466;2024-01-15T14:04:40;13.63;;;7.53;;
68097;SDS011;54886;47.036;15.466;2024-01-15T14:07:06;13.52;;;7.90;;
68097;SDS011;54886;47.036;15.466;2024-01-15T14:09:31;15.07;;;7.65;;
68097;SDS011;54886;47.036;15.466;2024-01-15T14:11:57;14.88;;;7.80;;
68097;SDS011;54886;47.036;15.466;2024-01-15T14:14:22;14.13;;;7.50;;
68097;SDS011;54886;47.036;15.466;2024-01-15T14:16:48;12.93;;;7.25;;